Time;durP1;ratioP1;P1;durP2;ratioP2;P2;SDS_P1;SDS_P2;PMS_P1;PMS_P2;Temp;Humidity;BMP_temperature;BMP_pressure;BME280_temperature;BME280_humidity;BME280_pressure;Samples;Min_cycle;Max_cycle;Signal;HPM_P1;HPM_P2
2023/01/24 00:00:45;;;;;;;4.95;1.15;;;;;;;;;;4978045;28;20026;-75
2023/01/24 00:03:15;;;;;;;4.28;0.88;;;;;;;;;;4973831;28;20516;-73
2023/01/24 00:05:42;;;;;;;3.38;0.80;;;;;;;;;;4980327;28;20059;-73
2023/01/24 00:08:08;;;;;;;2.03;0.95;;;;;;;;;;4973349;28;20499;-75
2023/01/24 00:10:34;;;;;;;2.75;0.70;;;;;;;;;;4975452;28;20033;-75
2023/01/24 00:13:00;;;;;;;1.40;0.68;;;;;;;;;;4975290;28;20034;-72
2023/01/24 00:15:27;;;;;;;1.17;0.45;;;;;;;;;;4974280;28;20022;-74
2023/01/24 00:17:53;;;;;;;2.67;0.50;;;;;;;;;;4978042;28;20454;-74
2023/01/24 00:20:19;;;;;;;0.80;0.40;;;;;;;;;;4971364;28;20417;-75
2023/01/24 00:22:45;;;;;;;1.40;0.60;;;;;;;;;;4976836;28;20084;-75
2023/01/24 00:25:11;;;;;;;1.45;0.47;;;;;;;;;;4975031;28;20027;-74
2023/01/24 00:27:38;;;;;;;2.22;0.43;;;;;;;;;;4974823;28;20027;-75
2023/01/24 00:30:05;;;;;;;5.72;0.30;;;;;;;;;;4974422;28;20095;-74
2023/01/24 00:32:31;;;;;;;5.47;0.55;;;;;;;;;;4977078;28;20807;-75
2023/01/24 00:34:57;;;;;;;1.55;0.40;;;;;;;;;;4974413;28;20026;-74
2023/01/24 00:37:24;;;;;;;1.00;0.50;;;;;;;;;;4975938;28;20113;-74
2023/01/24 00:39:50;;;;;;;2.88;0.68;;;;;;;;;;4969982;28;20565;-73
2023/01/24 00:42:16;;;;;;;8.63;1.23;;;;;;;;;;4975649;28;20042;-73
2023/01/24 00:44:42;;;;;;;1.98;0.52;;;;;;;;;;4976418;28;20018;-73
2023/01/24 00:47:08;;;;;;;5.10;1.00;;;;;;;;;;4972230;28;20076;-75
2023/01/24 00:49:34;;;;;;;1.10;0.80;;;;;;;;;;4978405;28;20048;-74
2023/01/24 00:52:01;;;;;;;2.13;0.88;;;;;;;;;;4976586;28;20038;-71
2023/01/24 00:54:27;;;;;;;1.73;0.80;;;;;;;;;;4979483;28;20048;-74
2023/01/24 00:56:53;;;;;;;4.40;1.17;;;;;;;;;;4977938;28;20046;-75
2023/01/24 00:59:19;;;;;;;2.50;1.00;;;;;;;;;;4980707;28;20021;-74
2023/01/24 01:01:45;;;;;;;1.65;0.80;;;;;;;;;;4974250;28;20030;-75
2023/01/24 01:04:11;;;;;;;1.92;1.10;;;;;;;;;;4979731;28;20081;-75
2023/01/24 01:06:37;;;;;;;2.92;0.82;;;;;;;;;;4979524;28;20046;-75
2023/01/24 01:09:04;;;;;;;3.15;0.80;;;;;;;;;;4974621;28;20475;-72
2023/01/24 01:11:30;;;;;;;5.07;0.80;;;;;;;;;;4978484;28;20034;-73
2023/01/24 01:13:56;;;;;;;1.83;0.98;;;;;;;;;;4971456;28;20031;-75
2023/01/24 01:16:23;;;;;;;1.48;0.80;;;;;;;;;;4975831;28;20905;-75
2023/01/24 01:18:50;;;;;;;1.98;0.70;;;;;;;;;;4980333;28;20845;-74
2023/01/24 01:21:17;;;;;;;1.25;0.80;;;;;;;;;;4976515;28;20829;-75
2023/01/24 01:23:44;;;;;;;1.75;0.70;;;;;;;;;;4980265;28;20431;-72
2023/01/24 01:26:14;;;;;;;1.48;0.80;;;;;;;;;;4978435;28;20030;-74
2023/01/24 01:28:40;;;;;;;2.63;0.95;;;;;;;;;;4980387;28;20260;-73
2023/01/24 01:31:06;;;;;;;2.35;0.82;;;;;;;;;;4978073;28;20054;-75
2023/01/24 01:33:32;;;;;;;2.80;0.70;;;;;;;;;;4972170;28;20089;-74
2023/01/24 01:35:58;;;;;;;1.05;0.63;;;;;;;;;;4970502;28;20821;-75
2023/01/24 01:38:27;;;;;;;2.92;0.80;;;;;;;;;;4967624;28;20019;-74
2023/01/24 01:40:54;;;;;;;2.55;0.77;;;;;;;;;;4977588;28;20205;-75
2023/01/24 01:43:22;;;;;;;1.20;0.73;;;;;;;;;;4976954;28;20041;-74
2023/01/24 01:45:49;;;;;;;2.45;1.10;;;;;;;;;;4972372;28;20635;-73
2023/01/24 01:48:18;;;;;;;2.83;1.10;;;;;;;;;;4977359;28;20495;-74
2023/01/24 01:50:46;;;;;;;1.58;0.80;;;;;;;;;;4972557;28;20636;-74
2023/01/24 01:53:13;;;;;;;1.42;0.70;;;;;;;;;;4968458;28;20049;-73
2023/01/24 01:55:41;;;;;;;2.47;1.00;;;;;;;;;;4975402;28;20030;-75
2023/01/24 01:58:08;;;;;;;1.52;0.70;;;;;;;;;;4975725;28;20018;-75
2023/01/24 02:00:34;;;;;;;1.27;0.82;;;;;;;;;;4973332;28;20029;-75
2023/01/24 02:05:48;;;;;;;3.00;1.10;;;;;;;;;;4978546;28;20056;-75
2023/01/24 02:08:18;;;;;;;2.65;0.88;;;;;;;;;;4967115;28;20022;-74
2023/01/24 02:13:31;;;;;;;1.10;0.80;;;;;;;;;;4971143;28;20551;-74
2023/01/24 02:16:03;;;;;;;2.00;1.02;;;;;;;;;;4976100;28;20104;-75
2023/01/24 02:18:34;;;;;;;1.08;0.70;;;;;;;;;;4973440;28;20366;-75
2023/01/24 02:21:00;;;;;;;0.75;0.60;;;;;;;;;;4979970;28;20062;-75
2023/01/24 02:23:45;;;;;;;3.30;0.70;;;;;;;;;;4973872;28;20030;-75
2023/01/24 02:26:11;;;;;;;1.08;0.60;;;;;;;;;;4972859;28;20038;-75
2023/01/24 02:28:37;;;;;;;1.45;0.73;;;;;;;;;;4975956;28;20033;-75
2023/01/24 02:31:04;;;;;;;1.17;0.70;;;;;;;;;;4971056;28;20038;-73
2023/01/24 02:33:31;;;;;;;1.33;0.60;;;;;;;;;;4973596;28;20106;-75
2023/01/24 02:36:19;;;;;;;2.72;0.50;;;;;;;;;;4979013;28;20038;-74
2023/01/24 02:38:48;;;;;;;1.50;0.40;;;;;;;;;;4969995;28;20070;-75
2023/01/24 02:41:16;;;;;;;1.52;0.70;;;;;;;;;;4977913;28;20050;-75
2023/01/24 02:43:45;;;;;;;0.63;0.45;;;;;;;;;;4974554;28;20030;-75
2023/01/24 02:46:12;;;;;;;2.50;0.60;;;;;;;;;;4978425;28;20074;-72
2023/01/24 02:48:38;;;;;;;1.15;0.60;;;;;;;;;;4977674;28;20030;-75
2023/01/24 02:53:49;;;;;;;0.75;0.30;;;;;;;;;;4971509;28;20082;-75
2023/01/24 02:59:00;;;;;;;1.45;0.70;;;;;;;;;;4978223;28;20037;-75
2023/01/24 03:01:26;;;;;;;2.08;0.70;;;;;;;;;;4976741;28;20034;-75
2023/01/24 03:03:53;;;;;;;3.45;0.70;;;;;;;;;;4982132;28;20165;-75
2023/01/24 03:06:20;;;;;;;1.33;0.73;;;;;;;;;;4979597;28;20074;-75
2023/01/24 03:08:46;;;;;;;0.90;0.60;;;;;;;;;;4979194;28;20038;-73
2023/01/24 03:11:12;;;;;;;2.10;0.60;;;;;;;;;;4979597;28;20088;-72
2023/01/24 03:35:53;;;;;;;0.63;0.40;;;;;;;;;;4976664;28;20045;-72
2023/01/24 03:41:04;;;;;;;0.50;0.40;;;;;;;;;;4982897;28;20045;-75
2023/01/24 03:43:30;;;;;;;0.70;0.40;;;;;;;;;;4980569;28;20011;-75
2023/01/24 03:45:56;;;;;;;1.52;0.28;;;;;;;;;;4980042;28;20522;-74
2023/01/24 03:48:26;;;;;;;1.35;0.50;;;;;;;;;;4977060;28;20599;-75
2023/01/24 03:53:38;;;;;;;2.15;0.50;;;;;;;;;;4976806;28;20435;-74
2023/01/24 03:56:04;;;;;;;1.48;0.45;;;;;;;;;;4980427;28;20128;-72
2023/01/24 03:58:31;;;;;;;1.85;0.85;;;;;;;;;;4980856;28;20053;-73
2023/01/24 04:00:57;;;;;;;0.52;0.35;;;;;;;;;;4980914;28;20125;-73
2023/01/24 04:03:23;;;;;;;2.78;0.70;;;;;;;;;;4980577;28;20023;-73
2023/01/24 04:05:50;;;;;;;1.60;0.50;;;;;;;;;;4976678;28;20064;-74
2023/01/24 04:08:17;;;;;;;1.27;0.55;;;;;;;;;;4981685;28;20026;-75
2023/01/24 04:10:43;;;;;;;4.07;0.68;;;;;;;;;;4980532;28;20034;-75
2023/01/24 04:13:10;;;;;;;3.30;0.55;;;;;;;;;;4983079;28;20029;-74
2023/01/24 04:15:37;;;;;;;2.58;0.60;;;;;;;;;;4976051;28;20038;-75
2023/01/24 04:18:04;;;;;;;2.97;0.40;;;;;;;;;;4975819;28;20057;-75
2023/01/24 04:20:31;;;;;;;2.13;0.40;;;;;;;;;;4979832;28;20035;-75
2023/01/24 04:23:00;;;;;;;4.07;0.60;;;;;;;;;;4980151;28;20034;-75
2023/01/24 04:25:26;;;;;;;3.38;0.52;;;;;;;;;;4979677;28;20151;-74
2023/01/24 04:27:52;;;;;;;1.13;0.40;;;;;;;;;;4971456;28;20031;-75
2023/01/24 04:30:18;;;;;;;1.38;0.50;;;;;;;;;;4980710;28;20037;-75
2023/01/24 04:32:44;;;;;;;1.55;0.63;;;;;;;;;;4971589;28;20554;-74
2023/01/24 04:35:16;;;;;;;0.93;0.40;;;;;;;;;;4978915;28;20022;-74
2023/01/24 04:37:42;;;;;;;1.08;0.38;;;;;;;;;;4974515;28;20149;-74
2023/01/24 04:40:09;;;;;;;1.05;0.30;;;;;;;;;;4976485;28;20084;-75
2023/01/24 04:42:35;;;;;;;1.67;0.50;;;;;;;;;;4978951;28;20553;-73
2023/01/24 04:45:01;;;;;;;2.95;0.40;;;;;;;;;;4975787;28;20247;-73
2023/01/24 04:47:27;;;;;;;0.93;0.55;;;;;;;;;;4975615;28;20513;-73
2023/01/24 04:49:53;;;;;;;0.65;0.40;;;;;;;;;;4973121;28;20689;-73
2023/01/24 04:52:19;;;;;;;0.50;0.40;;;;;;;;;;4978203;28;20034;-73
2023/01/24 04:54:46;;;;;;;2.63;0.43;;;;;;;;;;4972982;28;20070;-74
2023/01/24 04:57:12;;;;;;;10.02;0.65;;;;;;;;;;4976763;28;21243;-73
2023/01/24 04:59:39;;;;;;;1.95;0.40;;;;;;;;;;4974773;28;20023;-75
2023/01/24 05:02:05;;;;;;;0.40;0.30;;;;;;;;;;4972496;28;20101;-75
2023/01/24 05:04:31;;;;;;;0.75;0.38;;;;;;;;;;4978841;28;20100;-75
2023/01/24 05:06:57;;;;;;;0.20;0.20;;;;;;;;;;4974879;28;20046;-74
2023/01/24 05:09:23;;;;;;;1.23;0.40;;;;;;;;;;4973367;28;20533;-74
2023/01/24 05:11:49;;;;;;;0.50;0.30;;;;;;;;;;4973312;28;20038;-75
2023/01/24 05:14:16;;;;;;;1.75;0.32;;;;;;;;;;4976365;28;20483;-74
2023/01/24 05:16:42;;;;;;;0.52;0.30;;;;;;;;;;4971715;28;20049;-74
2023/01/24 05:19:08;;;;;;;2.35;0.40;;;;;;;;;;4972388;28;20026;-75
2023/01/24 05:21:34;;;;;;;1.50;0.60;;;;;;;;;;4976347;28;20027;-74
2023/01/24 05:24:00;;;;;;;0.55;0.25;;;;;;;;;;4974309;28;20019;-75
2023/01/24 05:26:27;;;;;;;0.47;0.30;;;;;;;;;;4972178;28;20041;-74
2023/01/24 05:28:53;;;;;;;1.48;0.30;;;;;;;;;;4972687;28;20062;-75
2023/01/24 05:31:20;;;;;;;1.35;0.45;;;;;;;;;;4976019;28;20462;-75
2023/01/24 05:33:46;;;;;;;2.58;0.32;;;;;;;;;;4974416;28;20560;-75
2023/01/24 05:36:18;;;;;;;0.95;0.40;;;;;;;;;;4975438;28;20050;-76
2023/01/24 05:38:44;;;;;;;2.15;0.35;;;;;;;;;;4970784;28;20033;-75
2023/01/24 05:41:12;;;;;;;1.48;0.30;;;;;;;;;;4974904;28;20097;-76
2023/01/24 05:43:38;;;;;;;2.60;0.25;;;;;;;;;;4973472;28;20022;-76
2023/01/24 05:46:06;;;;;;;1.40;0.70;;;;;;;;;;4976051;28;20030;-76
2023/01/24 05:48:32;;;;;;;6.28;1.20;;;;;;;;;;4969086;28;20053;-75
2023/01/24 05:50:58;;;;;;;1.42;0.93;;;;;;;;;;4973100;28;20041;-75
2023/01/24 05:53:25;;;;;;;3.58;1.33;;;;;;;;;;4976616;28;20077;-75
2023/01/24 05:55:55;;;;;;;4.75;1.40;;;;;;;;;;4972333;28;20043;-78
2023/01/24 05:58:22;;;;;;;3.72;1.00;;;;;;;;;;4975841;28;20105;-76
2023/01/24 06:00:48;;;;;;;3.10;0.88;;;;;;;;;;4978695;28;20641;-78
2023/01/24 06:03:14;;;;;;;1.38;0.50;;;;;;;;;;4973144;28;20046;-77
2023/01/24 06:05:44;;;;;;;1.63;0.32;;;;;;;;;;4974914;28;20050;-77
2023/01/24 06:08:11;;;;;;;0.73;0.43;;;;;;;;;;4970784;28;20034;-75
2023/01/24 06:10:37;;;;;;;0.25;0.25;;;;;;;;;;4971798;28;20032;-77
2023/01/24 06:13:03;;;;;;;1.35;0.45;;;;;;;;;;4966840;28;20034;-77
2023/01/24 06:15:29;;;;;;;1.35;0.50;;;;;;;;;;4973064;28;20976;-78
2023/01/24 06:17:55;;;;;;;0.50;0.32;;;;;;;;;;4976538;28;20419;-78
2023/01/24 06:20:21;;;;;;;0.95;0.32;;;;;;;;;;4975711;28;20092;-78
2023/01/24 06:22:56;;;;;;;1.60;0.50;;;;;;;;;;4975094;28;20460;-78
2023/01/24 06:25:24;;;;;;;0.32;0.30;;;;;;;;;;4978220;28;20550;-79
2023/01/24 06:27:50;;;;;;;2.72;0.30;;;;;;;;;;4976697;28;20395;-77
2023/01/24 06:30:17;;;;;;;0.70;0.30;;;;;;;;;;4973392;28;20466;-78
2023/01/24 06:32:46;;;;;;;0.52;0.35;;;;;;;;;;4982769;28;20022;-78
2023/01/24 06:35:16;;;;;;;2.97;0.50;;;;;;;;;;4980360;28;20049;-78
2023/01/24 06:37:49;;;;;;;4.28;0.80;;;;;;;;;;4977176;28;20118;-76
2023/01/24 06:40:17;;;;;;;5.75;1.00;;;;;;;;;;4978736;28;20018;-82
2023/01/24 06:42:43;;;;;;;2.80;1.00;;;;;;;;;;4984334;28;20036;-83
2023/01/24 06:45:10;;;;;;;2.30;0.70;;;;;;;;;;4983399;28;20073;-79
2023/01/24 06:47:36;;;;;;;1.50;0.70;;;;;;;;;;4983116;28;20030;-81
2023/01/24 06:50:04;;;;;;;2.22;0.45;;;;;;;;;;4978518;28;20026;-80
2023/01/24 06:52:30;;;;;;;2.78;0.70;;;;;;;;;;4978341;28;20828;-79
2023/01/24 06:54:57;;;;;;;8.90;1.00;;;;;;;;;;4976690;28;20030;-80
2023/01/24 06:57:23;;;;;;;1.83;1.00;;;;;;;;;;4979273;28;20037;-78
2023/01/24 06:59:49;;;;;;;2.15;0.68;;;;;;;;;;4976812;28;20030;-78
2023/01/24 07:02:15;;;;;;;0.80;0.57;;;;;;;;;;4980740;28;20037;-78
2023/01/24 07:04:41;;;;;;;5.40;0.70;;;;;;;;;;4978976;28;20049;-75
2023/01/24 07:07:07;;;;;;;4.13;0.65;;;;;;;;;;4979153;28;20031;-78
2023/01/24 07:09:34;;;;;;;7.80;3.35;;;;;;;;;;4981353;28;20107;-77
2023/01/24 07:12:00;;;;;;;7.43;4.20;;;;;;;;;;4977514;28;20402;-77
2023/01/24 07:14:26;;;;;;;8.07;4.10;;;;;;;;;;4978225;28;20023;-75
2023/01/24 07:16:55;;;;;;;5.28;2.45;;;;;;;;;;4978133;28;20121;-77
2023/01/24 07:19:22;;;;;;;2.72;1.30;;;;;;;;;;4979876;28;20092;-77
2023/01/24 07:21:48;;;;;;;8.20;3.92;;;;;;;;;;4977218;28;20038;-76
2023/01/24 07:24:16;;;;;;;10.73;5.20;;;;;;;;;;4975305;28;20050;-76
2023/01/24 07:26:43;;;;;;;11.82;5.88;;;;;;;;;;4979778;28;20022;-76
2023/01/24 07:29:09;;;;;;;9.32;5.63;;;;;;;;;;4975933;28;20065;-75
2023/01/24 07:31:35;;;;;;;9.90;3.35;;;;;;;;;;4978674;28;20026;-77
2023/01/24 07:34:01;;;;;;;1.30;0.80;;;;;;;;;;4980041;28;20277;-76
2023/01/24 07:36:27;;;;;;;7.80;5.03;;;;;;;;;;4975891;28;20046;-78
2023/01/24 07:38:57;;;;;;;28.92;12.45;;;;;;;;;;4981455;28;20035;-77
2023/01/24 07:41:23;;;;;;;17.63;9.45;;;;;;;;;;4981041;28;20018;-73
2023/01/24 07:43:49;;;;;;;19.42;8.15;;;;;;;;;;4979238;28;20026;-72
2023/01/24 07:46:16;;;;;;;15.32;7.47;;;;;;;;;;4975888;28;20929;-75
2023/01/24 07:48:42;;;;;;;9.75;6.47;;;;;;;;;;4980005;28;20022;-77
2023/01/24 07:51:09;;;;;;;9.38;5.53;;;;;;;;;;4976867;28;20392;-77
2023/01/24 07:53:35;;;;;;;9.27;5.55;;;;;;;;;;4977353;28;20709;-78
2023/01/24 07:56:02;;;;;;;11.13;6.10;;;;;;;;;;4981164;28;20564;-72
2023/01/24 07:58:28;;;;;;;14.50;5.75;;;;;;;;;;4978147;28;20027;-77
2023/01/24 08:00:54;;;;;;;9.32;5.50;;;;;;;;;;4976448;28;20030;-77
2023/01/24 08:03:20;;;;;;;7.85;5.28;;;;;;;;;;4978296;28;20022;-77
2023/01/24 08:05:46;;;;;;;9.45;4.47;;;;;;;;;;4979652;28;20046;-78
2023/01/24 08:08:13;;;;;;;10.20;5.63;;;;;;;;;;4978055;28;20097;-78
2023/01/24 08:10:39;;;;;;;12.40;7.55;;;;;;;;;;4977821;28;20019;-77
2023/01/24 08:13:05;;;;;;;10.13;6.80;;;;;;;;;;4975704;28;20030;-78
2023/01/24 08:15:31;;;;;;;7.43;4.22;;;;;;;;;;4976571;28;20031;-77
2023/01/24 08:17:57;;;;;;;8.35;4.03;;;;;;;;;;4979448;28;20168;-77
2023/01/24 08:20:23;;;;;;;9.32;3.90;;;;;;;;;;4978998;28;20030;-77
2023/01/24 08:22:55;;;;;;;8.52;4.03;;;;;;;;;;4972681;28;20415;-76
2023/01/24 08:25:21;;;;;;;12.30;3.80;;;;;;;;;;4976144;28;20022;-77
2023/01/24 08:27:47;;;;;;;7.50;3.38;;;;;;;;;;4982399;28;20018;-77
2023/01/24 08:30:15;;;;;;;7.35;3.25;;;;;;;;;;4974331;28;20078;-78
2023/01/24 08:32:41;;;;;;;6.95;3.03;;;;;;;;;;4979519;28;20022;-77
2023/01/24 08:35:08;;;;;;;5.85;3.17;;;;;;;;;;4975931;28;20023;-78
2023/01/24 08:37:34;;;;;;;5.80;3.30;;;;;;;;;;4980394;28;20039;-78
2023/01/24 08:40:00;;;;;;;9.95;3.70;;;;;;;;;;4976990;28;20499;-78
2023/01/24 08:42:26;;;;;;;9.65;3.63;;;;;;;;;;4978155;28;20771;-77
2023/01/24 08:44:52;;;;;;;6.63;2.65;;;;;;;;;;4977662;28;20026;-77
2023/01/24 08:47:18;;;;;;;4.05;2.33;;;;;;;;;;4972837;28;20033;-75
2023/01/24 08:49:45;;;;;;;5.72;2.78;;;;;;;;;;4978077;28;20031;-78
2023/01/24 08:52:11;;;;;;;9.88;2.90;;;;;;;;;;4975247;28;20023;-77
2023/01/24 08:54:38;;;;;;;5.05;2.28;;;;;;;;;;4978030;28;20058;-78
2023/01/24 08:57:04;;;;;;;4.22;2.00;;;;;;;;;;4978525;28;20044;-78
2023/01/24 08:59:30;;;;;;;5.35;1.30;;;;;;;;;;4978159;28;20225;-78
2023/01/24 09:01:56;;;;;;;1.90;0.90;;;;;;;;;;4978005;28;20057;-76
2023/01/24 09:04:26;;;;;;;3.70;1.45;;;;;;;;;;4977069;28;20487;-77
2023/01/24 09:06:52;;;;;;;3.58;1.52;;;;;;;;;;4974749;28;20510;-76
2023/01/24 09:09:18;;;;;;;1.13;0.88;;;;;;;;;;4971871;28;20389;-78
2023/01/24 09:11:45;;;;;;;0.77;0.70;;;;;;;;;;4976503;28;20034;-78
2023/01/24 09:14:11;;;;;;;4.03;1.13;;;;;;;;;;4975128;28;20019;-78
2023/01/24 09:16:37;;;;;;;3.55;0.80;;;;;;;;;;4976234;28;20034;-77
2023/01/24 09:19:03;;;;;;;1.00;0.70;;;;;;;;;;4979517;28;20019;-77
2023/01/24 09:21:29;;;;;;;2.40;1.17;;;;;;;;;;4971897;28;20030;-77
2023/01/24 09:23:56;;;;;;;2.28;1.10;;;;;;;;;;4974504;28;20085;-77
2023/01/24 09:26:22;;;;;;;0.77;0.65;;;;;;;;;;4977275;28;20026;-76
2023/01/24 09:28:48;;;;;;;2.47;1.40;;;;;;;;;;4976715;28;20026;-77
2023/01/24 09:31:15;;;;;;;3.25;1.23;;;;;;;;;;4977721;28;20027;-77
2023/01/24 09:33:41;;;;;;;1.85;1.30;;;;;;;;;;4974322;28;20053;-77
2023/01/24 09:36:08;;;;;;;1.58;0.98;;;;;;;;;;4976939;28;20038;-77
2023/01/24 09:38:34;;;;;;;3.20;1.63;;;;;;;;;;4977596;28;20018;-73
2023/01/24 09:41:01;;;;;;;6.60;2.13;;;;;;;;;;4974636;28;20026;-72
2023/01/24 09:43:27;;;;;;;2.75;1.10;;;;;;;;;;4976342;28;20027;-77
2023/01/24 09:45:58;;;;;;;2.53;1.20;;;;;;;;;;4974382;28;20073;-77
2023/01/24 09:48:24;;;;;;;1.97;1.10;;;;;;;;;;4978763;28;20022;-78
2023/01/24 09:50:52;;;;;;;3.92;1.38;;;;;;;;;;4975745;28;20060;-77
2023/01/24 09:53:24;;;;;;;2.55;1.30;;;;;;;;;;4977267;28;20023;-77
2023/01/24 09:55:51;;;;;;;2.72;1.40;;;;;;;;;;4976003;28;20157;-77
2023/01/24 09:58:28;;;;;;;3.47;1.50;;;;;;;;;;4976212;28;20030;-77
2023/01/24 10:00:55;;;;;;;5.00;2.03;;;;;;;;;;4975182;28;20514;-77
2023/01/24 10:03:22;;;;;;;4.70;2.00;;;;;;;;;;4972795;28;20034;-77
2023/01/24 10:05:49;;;;;;;4.43;1.60;;;;;;;;;;4975872;28;20053;-77
2023/01/24 10:08:21;;;;;;;4.50;1.90;;;;;;;;;;4977265;28;20562;-76
2023/01/24 10:10:53;;;;;;;4.45;2.33;;;;;;;;;;4978974;28;20022;-77
2023/01/24 10:13:28;;;;;;;3.53;1.92;;;;;;;;;;4974350;28;20026;-77
2023/01/24 10:15:57;;;;;;;5.05;1.58;;;;;;;;;;4974875;28;20045;-78
2023/01/24 10:18:27;;;;;;;2.17;1.23;;;;;;;;;;4976562;28;20497;-77
2023/01/24 10:20:59;;;;;;;2.72;1.60;;;;;;;;;;4975628;28;20030;-76
2023/01/24 10:23:27;;;;;;;3.30;1.55;;;;;;;;;;4972446;28;20029;-77
2023/01/24 10:25:53;;;;;;;3.22;1.27;;;;;;;;;;4977136;28;20034;-77
2023/01/24 10:28:21;;;;;;;2.10;1.27;;;;;;;;;;4975449;28;20010;-77
2023/01/24 10:31:06;;;;;;;3.05;1.60;;;;;;;;;;4974888;28;20069;-77
2023/01/24 10:33:35;;;;;;;3.85;1.40;;;;;;;;;;4972479;28;20072;-77
2023/01/24 10:36:13;;;;;;;2.38;1.45;;;;;;;;;;4976456;28;20023;-77
2023/01/24 10:38:41;;;;;;;2.90;1.48;;;;;;;;;;4976032;28;20429;-77
2023/01/24 10:41:18;;;;;;;1.85;1.27;;;;;;;;;;4974070;28;20023;-77
2023/01/24 10:43:46;;;;;;;3.55;1.80;;;;;;;;;;4976203;28;20085;-73
2023/01/24 10:46:18;;;;;;;3.08;1.92;;;;;;;;;;4974434;28;20030;-76
2023/01/24 10:48:49;;;;;;;3.35;1.85;;;;;;;;;;4974504;28;20030;-77
2023/01/24 10:51:15;;;;;;;3.42;1.55;;;;;;;;;;4973824;28;20088;-77
2023/01/24 10:53:42;;;;;;;2.58;1.45;;;;;;;;;;4977062;28;20019;-77
2023/01/24 10:56:08;;;;;;;3.00;1.60;;;;;;;;;;4974386;28;20117;-77
2023/01/24 10:58:41;;;;;;;2.65;1.55;;;;;;;;;;4975013;28;20022;-77
2023/01/24 11:01:20;;;;;;;2.05;1.30;;;;;;;;;;4979112;28;20022;-77
2023/01/24 11:03:48;;;;;;;4.22;1.45;;;;;;;;;;4969147;28;20031;-76
2023/01/24 11:06:24;;;;;;;2.33;1.45;;;;;;;;;;4976232;28;20401;-77
2023/01/24 11:08:54;;;;;;;1.67;1.20;;;;;;;;;;4975055;28;20026;-77
2023/01/24 11:11:25;;;;;;;4.95;1.40;;;;;;;;;;4975491;28;20102;-77
2023/01/24 11:13:56;;;;;;;2.07;1.27;;;;;;;;;;4973388;28;20059;-77
2023/01/24 11:16:24;;;;;;;4.40;1.10;;;;;;;;;;4976163;28;20046;-74
2023/01/24 11:18:56;;;;;;;4.47;1.35;;;;;;;;;;4975820;28;20677;-77
2023/01/24 11:21:22;;;;;;;3.88;1.73;;;;;;;;;;4976606;28;20500;-77
2023/01/24 11:24:07;;;;;;;2.78;1.75;;;;;;;;;;4979775;28;20210;-77
2023/01/24 11:26:38;;;;;;;3.25;1.83;;;;;;;;;;4977970;28;20031;-76
2023/01/24 11:29:09;;;;;;;3.15;1.45;;;;;;;;;;4979326;28;20019;-77
2023/01/24 11:31:53;;;;;;;1.92;1.20;;;;;;;;;;4979792;28;20542;-76
2023/01/24 11:34:22;;;;;;;1.58;0.95;;;;;;;;;;4974553;28;20463;-77
2023/01/24 11:36:59;;;;;;;1.63;1.00;;;;;;;;;;4979991;28;20065;-77
2023/01/24 11:39:34;;;;;;;2.35;0.68;;;;;;;;;;4978091;28;20037;-77
2023/01/24 11:42:05;;;;;;;1.67;0.93;;;;;;;;;;4976735;28;20089;-77
2023/01/24 11:44:37;;;;;;;1.80;0.70;;;;;;;;;;4976185;28;20105;-77
2023/01/24 11:47:08;;;;;;;2.85;0.68;;;;;;;;;;4980972;28;20026;-77
2023/01/24 11:49:50;;;;;;;2.00;0.80;;;;;;;;;;4978470;28;20479;-77
2023/01/24 11:52:35;;;;;;;0.60;0.50;;;;;;;;;;4978417;28;20201;-77
2023/01/24 11:55:04;;;;;;;1.65;0.60;;;;;;;;;;4977075;28;20037;-77
2023/01/24 11:57:33;;;;;;;2.65;0.95;;;;;;;;;;4980255;28;20042;-77
2023/01/24 11:59:59;;;;;;;1.38;0.80;;;;;;;;;;4977758;28;20039;-77
2023/01/24 12:02:44;;;;;;;1.33;0.63;;;;;;;;;;4980182;28;20466;-77
2023/01/24 12:05:26;;;;;;;1.60;0.85;;;;;;;;;;4977208;28;20046;-77
2023/01/24 12:07:55;;;;;;;1.05;0.70;;;;;;;;;;4975940;28;20033;-75
2023/01/24 12:10:40;;;;;;;0.85;0.60;;;;;;;;;;4979959;28;20024;-77
2023/01/24 12:13:15;;;;;;;2.58;0.88;;;;;;;;;;4975308;28;20561;-77
2023/01/24 12:15:41;;;;;;;2.00;0.52;;;;;;;;;;4979265;28;20026;-77
2023/01/24 12:18:30;;;;;;;1.60;0.70;;;;;;;;;;4977662;28;20038;-77
2023/01/24 12:20:58;;;;;;;1.02;0.70;;;;;;;;;;4975208;28;20042;-78
2023/01/24 12:23:37;;;;;;;1.17;0.80;;;;;;;;;;4975274;28;20044;-77
2023/01/24 12:26:07;;;;;;;1.45;0.60;;;;;;;;;;4977540;28;20118;-75
2023/01/24 12:28:51;;;;;;;1.15;0.70;;;;;;;;;;4980064;28;20022;-76
2023/01/24 12:31:23;;;;;;;2.05;0.73;;;;;;;;;;4978637;28;20022;-76
2023/01/24 12:33:49;;;;;;;;;;;;;;;;;;4979424;28;20389;-76
2023/01/24 12:36:34;;;;;;;1.33;0.80;;;;;;;;;;4977300;28;20437;-77
2023/01/24 12:39:02;;;;;;;2.30;1.10;;;;;;;;;;4976342;28;20046;-77
2023/01/24 12:41:31;;;;;;;2.30;0.73;;;;;;;;;;4979875;28;20107;-77
2023/01/24 12:44:16;;;;;;;1.77;0.80;;;;;;;;;;4978872;28;20421;-77
2023/01/24 12:46:46;;;;;;;1.65;0.98;;;;;;;;;;4981721;28;20431;-77
2023/01/24 12:49:29;;;;;;;1.40;0.95;;;;;;;;;;4977278;28;20053;-75
2023/01/24 12:52:08;;;;;;;1.85;1.13;;;;;;;;;;4975921;28;20030;-76
2023/01/24 12:54:44;;;;;;;1.58;0.82;;;;;;;;;;4975621;28;20095;-78
2023/01/24 12:57:10;;;;;;;1.13;0.90;;;;;;;;;;4980773;28;20041;-77
2023/01/24 12:59:36;;;;;;;1.27;0.70;;;;;;;;;;4974571;28;20014;-78
2023/01/24 13:02:29;;;;;;;1.55;0.75;;;;;;;;;;4974535;28;20435;-76
2023/01/24 13:04:58;;;;;;;1.45;0.80;;;;;;;;;;4964264;28;20673;-79
2023/01/24 13:07:30;;;;;;;2.38;1.38;;;;;;;;;;4974120;28;20027;-73
2023/01/24 13:10:02;;;;;;;6.25;1.40;;;;;;;;;;4976353;28;20018;-73
2023/01/24 13:12:29;;;;;;;8.13;1.60;;;;;;;;;;4979066;28;20023;-75
2023/01/24 13:14:55;;;;;;;5.82;1.20;;;;;;;;;;4977235;28;20029;-74
2023/01/24 13:17:27;;;;;;;2.40;1.38;;;;;;;;;;4977774;28;20031;-74
2023/01/24 13:19:53;;;;;;;;;;;;;;;;;;4976143;28;20376;-74
2023/01/24 13:22:38;;;;;;;1.95;1.15;;;;;;;;;;4976663;28;20406;-74
2023/01/24 13:25:13;;;;;;;2.03;1.10;;;;;;;;;;4971488;28;20117;-72
2023/01/24 13:27:44;;;;;;;4.03;1.48;;;;;;;;;;4981131;28;20027;-76
2023/01/24 13:30:22;;;;;;;1.60;1.08;;;;;;;;;;4976785;28;20034;-76
2023/01/24 13:32:48;;;;;;;3.10;1.27;;;;;;;;;;4973541;28;20034;-74
2023/01/24 13:35:18;;;;;;;5.40;2.85;;;;;;;;;;4979506;28;20027;-76
2023/01/24 13:37:50;;;;;;;4.07;1.58;;;;;;;;;;4973581;28;20030;-77
2023/01/24 13:40:16;;;;;;;2.03;1.25;;;;;;;;;;4983663;28;20080;-77
2023/01/24 13:42:43;;;;;;;2.47;1.10;;;;;;;;;;4974442;28;20080;-77
2023/01/24 13:45:36;;;;;;;4.30;1.52;;;;;;;;;;4973154;28;20018;-78
2023/01/24 13:48:04;;;;;;;1.80;1.00;;;;;;;;;;4977222;28;20031;-76
2023/01/24 13:50:32;;;;;;;2.40;1.30;;;;;;;;;;4976189;28;20026;-77
2023/01/24 13:52:59;;;;;;;5.18;2.15;;;;;;;;;;4973913;28;20030;-75
2023/01/24 13:55:25;;;;;;;3.15;1.67;;;;;;;;;;4974603;28;20810;-76
2023/01/24 13:57:57;;;;;;;4.95;2.47;;;;;;;;;;4976297;28;20034;-75
2023/01/24 14:00:25;;;;;;;3.60;1.95;;;;;;;;;;4977721;28;20018;-75
2023/01/24 14:02:51;;;;;;;3.10;1.67;;;;;;;;;;4977238;28;20042;-81
2023/01/24 14:05:32;;;;;;;3.85;1.60;;;;;;;;;;4972754;28;20046;-74
2023/01/24 14:07:58;;;;;;;5.80;1.73;;;;;;;;;;4974464;28;20026;-76
2023/01/24 14:10:48;;;;;;;7.40;2.90;;;;;;;;;;4973987;28;20037;-76
2023/01/24 14:13:33;;;;;;;7.88;2.40;;;;;;;;;;4958950;28;20047;-77
2023/01/24 14:15:59;;;;;;;7.10;2.22;;;;;;;;;;4970411;28;20088;-78
2023/01/24 14:18:44;;;;;;;4.07;1.55;;;;;;;;;;4974686;28;20126;-78
2023/01/24 14:21:14;;;;;;;2.67;1.55;;;;;;;;;;4976793;28;20044;-81
2023/01/24 14:23:41;;;;;;;3.00;1.13;;;;;;;;;;4976152;28;20130;-76
2023/01/24 14:26:13;;;;;;;2.05;1.33;;;;;;;;;;4972567;28;20038;-75
2023/01/24 14:28:45;;;;;;;2.47;1.10;;;;;;;;;;4976143;28;20498;-76
2023/01/24 14:31:24;;;;;;;3.35;1.30;;;;;;;;;;4973341;28;20523;-76
2023/01/24 14:33:56;;;;;;;2.22;1.23;;;;;;;;;;4977884;28;20053;-77
2023/01/24 14:36:22;;;;;;;2.13;1.13;;;;;;;;;;4973333;28;20181;-75
2023/01/24 14:38:48;;;;;;;1.83;1.10;;;;;;;;;;4974378;28;20023;-75
2023/01/24 14:41:23;;;;;;;3.35;1.60;;;;;;;;;;4972376;28;20030;-74
2023/01/24 14:43:50;;;;;;;1.77;1.27;;;;;;;;;;4978960;28;20061;-75
2023/01/24 14:46:24;;;;;;;2.22;1.58;;;;;;;;;;4974633;28;20477;-76
2023/01/24 14:48:51;;;;;;;3.45;1.48;;;;;;;;;;4971682;28;20026;-77
2023/01/24 14:51:24;;;;;;;1.70;1.23;;;;;;;;;;4974811;28;20033;-77
2023/01/24 14:53:51;;;;;;;2.03;1.40;;;;;;;;;;4980476;28;20026;-75
2023/01/24 14:56:17;;;;;;;2.70;1.65;;;;;;;;;;4983297;28;20030;-77
2023/01/24 14:58:44;;;;;;;2.53;1.50;;;;;;;;;;4982098;28;20097;-74
2023/01/24 15:01:22;;;;;;;2.28;1.35;;;;;;;;;;4983539;28;20106;-76
2023/01/24 15:03:50;;;;;;;2.22;1.48;;;;;;;;;;4977399;28;20538;-77
2023/01/24 15:06:18;;;;;;;3.70;1.52;;;;;;;;;;4983896;28;20050;-76
2023/01/24 15:08:44;;;;;;;2.80;1.42;;;;;;;;;;4983876;28;20026;-76
2023/01/24 15:11:21;;;;;;;1.98;1.27;;;;;;;;;;4982953;28;20018;-74
2023/01/24 15:13:52;;;;;;;2.42;1.52;;;;;;;;;;4979309;28;20030;-75
2023/01/24 15:16:20;;;;;;;1.60;1.10;;;;;;;;;;4981861;28;20046;-74
2023/01/24 15:18:48;;;;;;;1.60;1.20;;;;;;;;;;4983411;28;20076;-76
2023/01/24 15:21:23;;;;;;;2.28;1.20;;;;;;;;;;4981137;28;20606;-74
2023/01/24 15:23:51;;;;;;;2.45;1.60;;;;;;;;;;4977793;28;20076;-75
2023/01/24 15:26:25;;;;;;;2.20;1.63;;;;;;;;;;4974124;28;20030;-75
2023/01/24 15:28:51;;;;;;;3.35;1.90;;;;;;;;;;4980064;28;20579;-74
2023/01/24 15:31:22;;;;;;;4.88;2.20;;;;;;;;;;4976499;28;20037;-74